Lincoln Lakeshore

*Note: All times are displayed in the local standard time of the station location.
**Rain - Equipment is designed to accurately record liquid precipitation; under conditions when precipitation is not in liquid form, the data displayed may not properly reflect rainfall values.

Date Max Temp
(°C)
Min Temp
(°C)
Avg Temp
(°C)
Rain (mm) Avg RH (%)
Mon, Apr 23, 2018 9.6 -0.4 5.0 0.0 61.6
Sun, Apr 22, 2018 15.5 -1.4 7.2 0.0 40.1
Sat, Apr 21, 2018 14.0 -2.2 6.4 0.0 41.5
Fri, Apr 20, 2018 8.6 -0.6 3.3 0.0 48.1
Thu, Apr 19, 2018 4.7 1.2 2.6 0.0 55.2
Wed, Apr 18, 2018 5.0 1.0 2.6 0.0 62.4
Tue, Apr 17, 2018 2.0 -0.3 1.0 0.0 60.6
DateTime Avg Temp (°C) Rain (mm) RH (%)
Tue, Apr 24, 2018 18:00 13.3 0.2 65.0
Tue, Apr 24, 2018 17:00 14.5 0.0 51.0
Tue, Apr 24, 2018 16:00 9.6 0.0 59.5
Tue, Apr 24, 2018 15:00 17.3 0.0 34.5
Tue, Apr 24, 2018 14:00 18.0 0.0 29.8
Tue, Apr 24, 2018 13:00 17.2 0.0 30.3
Tue, Apr 24, 2018 12:00 16.2 0.0 33.8
Tue, Apr 24, 2018 11:00 14.4 0.0 42.8
Tue, Apr 24, 2018 10:00 13.7 0.0 49.0
Tue, Apr 24, 2018 09:00 13.6 0.0 49.3
Tue, Apr 24, 2018 08:00 12.8 0.0 47.5
Tue, Apr 24, 2018 07:00 7.9 0.0 66.5
Tue, Apr 24, 2018 06:00 8.2 0.0 62.0
Tue, Apr 24, 2018 05:00 6.1 0.0 64.0
Tue, Apr 24, 2018 04:00 3.7 0.0 75.8
Tue, Apr 24, 2018 03:00 4.0 0.0 73.8
Tue, Apr 24, 2018 02:00 4.6 0.0 68.3
Tue, Apr 24, 2018 01:00 4.7 0.0 63.8
Tue, Apr 24, 2018 00:00 4.7 0.0 66.5
Mon, Apr 23, 2018 23:00 4.9 0.0 65.0
Mon, Apr 23, 2018 22:00 5.2 0.0 63.3
Mon, Apr 23, 2018 21:00 5.2 0.0 65.3
Mon, Apr 23, 2018 20:00 5.8 0.0 62.0
Mon, Apr 23, 2018 19:00 6.9 0.0 56.5
Mon, Apr 23, 2018 18:00 7.6 0.0 55.0
Mon, Apr 23, 2018 17:00 8.6 0.0 48.8
Mon, Apr 23, 2018 16:00 9.3 0.0 43.8
Mon, Apr 23, 2018 15:00 8.7 0.0 48.5
Mon, Apr 23, 2018 14:00 8.1 0.0 52.3
Mon, Apr 23, 2018 13:00 7.6 0.0 55.5
Mon, Apr 23, 2018 12:00 7.9 0.0 53.8
Mon, Apr 23, 2018 11:00 6.8 0.0 60.5
Mon, Apr 23, 2018 10:00 6.7 0.0 59.8
Mon, Apr 23, 2018 09:00 5.4 0.0 65.0
Mon, Apr 23, 2018 08:00 3.8 0.0 66.0
Mon, Apr 23, 2018 07:00 1.2 0.0 68.3
Mon, Apr 23, 2018 06:00 0.9 0.0 74.3
Mon, Apr 23, 2018 05:00 -0.2 0.0 74.0
Mon, Apr 23, 2018 04:00 -0.2 0.0 78.0
Mon, Apr 23, 2018 03:00 0.6 0.0 73.0
Mon, Apr 23, 2018 02:00 1.8 0.0 66.3
Mon, Apr 23, 2018 01:00 4.0 0.0 56.8
Mon, Apr 23, 2018 00:00 4.6 0.0 50.3
Sun, Apr 22, 2018 23:00 5.0 0.0 55.0
Sun, Apr 22, 2018 22:00 6.4 0.0 43.0
Sun, Apr 22, 2018 21:00 9.5 0.0 38.5
Sun, Apr 22, 2018 20:00 13.9 0.0 14.5
Sun, Apr 22, 2018 19:00 15.3 0.0 10.8


asterix Register now to access more data! asterix